createdAt,value
2024-04-07T00:00:27.059Z,70.12
2024-04-07T00:05:30.995Z,70.54
2024-04-07T00:10:37.511Z,70.38
2024-04-07T00:15:40.400Z,70.39
2024-04-07T00:20:43.479Z,70.59
2024-04-07T00:25:46.550Z,70.81
2024-04-07T00:30:50.674Z,71.22
2024-04-07T00:35:57.295Z,70.56
2024-04-07T00:41:03.411Z,70.88
2024-04-07T00:46:06.232Z,71.28
2024-04-07T00:51:09.796Z,71.70
2024-04-07T00:56:13.162Z,71.86
2024-04-07T01:01:15.970Z,72.11
2024-04-07T01:06:19.156Z,71.46
2024-04-07T01:11:27.711Z,71.36
2024-04-07T01:16:30.544Z,71.78
2024-04-07T01:21:33.569Z,71.90
2024-04-07T01:26:36.363Z,72.11
2024-04-07T01:31:39.787Z,72.55
2024-04-07T01:36:43.979Z,72.83
2024-04-07T01:41:46.906Z,72.97
2024-04-07T01:46:49.895Z,72.94
2024-04-07T01:51:52.785Z,72.55
2024-04-07T01:56:55.572Z,72.54
2024-04-07T02:01:58.488Z,73.26
2024-04-07T02:07:01.340Z,73.74
2024-04-07T02:12:05.539Z,74.00
2024-04-07T02:17:08.497Z,73.86
2024-04-07T02:22:11.335Z,73.82
2024-04-07T02:27:14.174Z,73.73
2024-04-07T02:32:18.289Z,74.02
2024-04-07T02:37:21.217Z,73.96
2024-04-07T02:42:24.052Z,74.17
2024-04-07T02:47:50.597Z,74.37
2024-04-07T02:52:53.487Z,74.73
2024-04-07T02:57:56.571Z,74.63
2024-04-07T03:02:59.394Z,74.76
2024-04-07T03:08:05.506Z,74.94
2024-04-07T03:13:08.366Z,74.09
2024-04-07T03:18:11.455Z,73.44
2024-04-07T03:23:14.933Z,73.33
2024-04-07T03:28:17.835Z,73.47
2024-04-07T03:33:21.117Z,73.47
2024-04-07T03:38:23.974Z,74.19
2024-04-07T03:43:26.782Z,74.78
2024-04-07T03:48:29.596Z,74.81
2024-04-07T03:53:32.535Z,75.18
2024-04-07T03:58:35.385Z,75.42
2024-04-07T04:03:38.194Z,75.55
2024-04-07T04:08:41.102Z,75.49
2024-04-07T04:13:47.058Z,75.76
2024-04-07T04:18:53.901Z,75.87
2024-04-07T04:23:56.899Z,76.31
2024-04-07T04:28:59.758Z,76.14
2024-04-07T04:34:03.210Z,76.41
2024-04-07T04:39:07.132Z,76.30
2024-04-07T04:44:10.107Z,76.51
2024-04-07T04:49:13.073Z,76.87
2024-04-07T04:54:16.236Z,76.74
2024-04-07T04:59:19.113Z,76.91
2024-04-07T05:04:21.970Z,77.12
2024-04-07T05:09:24.850Z,77.06
2024-04-07T05:14:27.658Z,77.12
2024-04-07T05:19:30.655Z,77.23
2024-04-07T05:24:33.521Z,76.93
2024-04-07T05:29:36.366Z,76.87
2024-04-07T05:34:40.234Z,76.84
2024-04-07T05:39:48.935Z,76.60
2024-04-07T05:44:51.787Z,76.11
2024-04-07T05:49:54.938Z,75.76
2024-04-07T05:54:57.882Z,75.26
2024-04-07T06:00:00.959Z,74.82
2024-04-07T06:05:04.326Z,74.32
2024-04-07T06:10:07.958Z,74.28
2024-04-07T06:15:11.020Z,73.28
2024-04-07T06:20:13.928Z,72.48
2024-04-07T06:25:16.931Z,70.90
2024-04-07T06:30:19.991Z,69.71
2024-04-07T06:35:23.328Z,68.96
2024-04-07T06:40:26.194Z,67.92
2024-04-07T06:45:29.129Z,66.45
2024-04-07T06:50:33.993Z,65.64
2024-04-07T06:55:37.725Z,64.17
2024-04-07T07:00:41.644Z,63.70
2024-04-07T07:05:44.881Z,63.05
2024-04-07T07:11:00.084Z,62.37
2024-04-07T07:16:03.163Z,61.39
2024-04-07T07:21:07.462Z,60.79
2024-04-07T07:26:10.378Z,60.70
2024-04-07T07:31:13.370Z,59.65
2024-04-07T07:36:16.366Z,59.73
2024-04-07T07:41:19.163Z,59.43
2024-04-07T07:46:21.989Z,57.66
2024-04-07T07:51:25.584Z,57.22
2024-04-07T07:56:28.380Z,57.29
2024-04-07T08:01:33.017Z,57.73
2024-04-07T08:06:35.974Z,56.39
2024-04-07T08:11:38.931Z,55.53
2024-04-07T08:16:41.756Z,55.47
2024-04-07T08:21:44.563Z,53.34
2024-04-07T08:26:47.380Z,52.50
2024-04-07T08:31:50.192Z,52.77
2024-04-07T08:36:53.434Z,52.28
2024-04-07T08:41:58.627Z,51.57
2024-04-07T08:47:03.502Z,51.29
2024-04-07T08:52:06.325Z,51.00
2024-04-07T08:57:12.006Z,50.99
2024-04-07T09:02:19.375Z,51.00
2024-04-07T09:07:23.899Z,49.67
2024-04-07T09:12:26.999Z,49.31
2024-04-07T09:17:31.384Z,49.33
2024-04-07T09:22:35.467Z,48.84
2024-04-07T09:27:38.683Z,47.63
2024-04-07T09:32:42.847Z,47.24
2024-04-07T09:37:47.154Z,46.48
2024-04-07T09:42:54.924Z,46.58
2024-04-07T09:48:02.900Z,47.21
2024-04-07T09:53:20.926Z,46.44
2024-04-07T09:58:24.349Z,46.30
2024-04-07T10:03:28.194Z,48.02
2024-04-07T10:08:32.197Z,47.44
2024-04-07T10:13:35.062Z,46.86
2024-04-07T10:18:41.283Z,47.93
2024-04-07T10:23:48.385Z,46.27
2024-04-07T10:28:54.529Z,46.38
2024-04-07T10:33:58.012Z,47.47
2024-04-07T10:39:03.657Z,46.57
2024-04-07T10:44:10.080Z,46.71
2024-04-07T10:49:13.865Z,46.95
2024-04-07T10:54:16.669Z,47.53
2024-04-07T10:59:19.518Z,46.46
2024-04-07T11:04:22.781Z,46.22
2024-04-07T11:09:25.821Z,44.91
2024-04-07T11:14:30.607Z,43.74
2024-04-07T11:19:33.979Z,43.27
2024-04-07T11:24:38.289Z,43.08
2024-04-07T11:29:41.401Z,42.03
2024-04-07T11:34:45.826Z,42.58
2024-04-07T11:39:56.992Z,42.05
2024-04-07T11:45:04.903Z,42.00
2024-04-07T11:50:10.127Z,40.74
2024-04-07T11:55:13.103Z,40.76
2024-04-07T12:00:18.824Z,40.82
2024-04-07T12:05:21.803Z,39.41
2024-04-07T12:10:24.647Z,39.81
2024-04-07T12:15:27.545Z,40.08
2024-04-07T12:20:30.399Z,39.56
2024-04-07T12:25:33.495Z,40.47
2024-04-07T12:30:36.407Z,41.13
2024-04-07T12:35:39.939Z,40.31
2024-04-07T12:40:43.294Z,40.52
2024-04-07T12:45:46.136Z,40.70
2024-04-07T12:50:49.444Z,40.93
2024-04-07T12:55:52.349Z,40.54
2024-04-07T13:00:55.156Z,41.18
2024-04-07T13:05:59.002Z,40.69
2024-04-07T13:11:02.089Z,40.35
2024-04-07T13:16:05.839Z,40.25
2024-04-07T13:21:09.459Z,40.75
2024-04-07T13:26:12.314Z,40.29
2024-04-07T13:31:15.143Z,39.73
2024-04-07T13:36:18.002Z,40.01
2024-04-07T13:41:23.007Z,39.11
2024-04-07T13:46:26.022Z,38.96
2024-04-07T13:51:29.174Z,39.43
2024-04-07T13:56:32.373Z,38.54
2024-04-07T14:01:35.738Z,38.44
2024-04-07T14:06:38.586Z,39.02
2024-04-07T14:11:41.581Z,38.53
2024-04-07T14:16:44.452Z,37.97
2024-04-07T14:21:47.299Z,38.58
2024-04-07T14:26:50.321Z,38.44
2024-04-07T14:31:53.174Z,38.46
2024-04-07T14:36:56.909Z,37.80
2024-04-07T14:42:00.406Z,37.48
2024-04-07T14:47:04.093Z,37.71
2024-04-07T14:52:07.820Z,37.84
2024-04-07T14:57:10.868Z,37.95
2024-04-07T15:02:15.772Z,38.43
2024-04-07T15:07:20.481Z,38.74
2024-04-07T15:12:23.515Z,39.29
2024-04-07T15:17:26.320Z,39.07
2024-04-07T15:22:29.354Z,39.05
2024-04-07T15:27:32.197Z,39.39
2024-04-07T15:32:35.152Z,40.03
2024-04-07T15:37:40.779Z,39.84
2024-04-07T15:42:44.026Z,40.03
2024-04-07T15:47:46.964Z,39.81
2024-04-07T15:52:52.096Z,39.77
2024-04-07T15:57:54.964Z,40.33
2024-04-07T16:02:57.847Z,40.52
2024-04-07T16:08:00.932Z,41.15
2024-04-07T16:13:04.744Z,41.65
2024-04-07T16:18:08.262Z,42.10
2024-04-07T16:23:11.196Z,42.20
2024-04-07T16:28:14.089Z,42.38
2024-04-07T16:33:17.121Z,42.50
2024-04-07T16:38:20.497Z,42.71
2024-04-07T16:43:23.509Z,43.01
2024-04-07T16:48:26.318Z,43.14
2024-04-07T16:53:29.183Z,43.08
2024-04-07T16:58:32.317Z,43.34
2024-04-07T17:03:35.398Z,43.39
2024-04-07T17:08:39.829Z,43.45
2024-04-07T17:13:42.956Z,43.58
2024-04-07T17:18:45.908Z,43.65
2024-04-07T17:23:48.800Z,44.06
2024-04-07T17:28:51.682Z,44.89
2024-04-07T17:33:55.297Z,45.60
2024-04-07T17:38:58.186Z,46.44
2024-04-07T17:44:01.443Z,46.72
2024-04-07T17:49:04.753Z,47.23
2024-04-07T17:54:07.618Z,47.72
2024-04-07T17:59:10.482Z,48.38
2024-04-07T18:04:13.255Z,48.68
2024-04-07T18:09:20.155Z,49.06
2024-04-07T18:14:23.206Z,49.41
2024-04-07T18:19:26.127Z,49.91
2024-04-07T18:24:30.744Z,50.25
2024-04-07T18:29:33.968Z,50.75
2024-04-07T18:34:36.842Z,51.40
2024-04-07T18:39:40.351Z,52.16
2024-04-07T18:44:43.956Z,52.32
2024-04-07T18:49:46.916Z,52.65
2024-04-07T18:54:50.005Z,52.92
2024-04-07T18:59:54.603Z,53.47
2024-04-07T19:05:00.781Z,53.87
2024-04-07T19:10:03.913Z,54.00
2024-04-07T19:15:07.688Z,54.18
2024-04-07T19:20:10.919Z,54.36
2024-04-07T19:25:14.639Z,54.97
2024-04-07T19:30:17.717Z,55.30
2024-04-07T19:35:23.361Z,55.49
2024-04-07T19:40:26.179Z,56.13
2024-04-07T19:45:31.037Z,56.25
2024-04-07T19:50:34.108Z,56.55
2024-04-07T19:55:37.073Z,56.64
2024-04-07T20:00:41.550Z,56.97
2024-04-07T20:05:47.050Z,57.39
2024-04-07T20:10:52.079Z,57.39
2024-04-07T20:15:54.951Z,57.65
2024-04-07T20:21:00.692Z,57.63
2024-04-07T20:26:03.834Z,58.45
2024-04-07T20:31:06.718Z,58.43
2024-04-07T20:36:09.751Z,58.46
2024-04-07T20:41:12.594Z,58.44
2024-04-07T20:46:17.201Z,58.31
2024-04-07T20:51:20.110Z,58.55
2024-04-07T20:56:23.082Z,58.60
2024-04-07T21:01:26.151Z,57.98
2024-04-07T21:06:29.187Z,58.60
2024-04-07T21:11:32.187Z,58.05
2024-04-07T21:16:36.528Z,57.82
2024-04-07T21:21:39.593Z,57.87
2024-04-07T21:26:42.697Z,57.81
2024-04-07T21:31:45.732Z,57.20
2024-04-07T21:36:48.724Z,57.32
2024-04-07T21:41:51.526Z,56.99
2024-04-07T21:46:54.614Z,57.04
2024-04-07T21:51:57.452Z,56.58
2024-04-07T21:57:00.829Z,56.68
2024-04-07T22:02:04.138Z,56.69
2024-04-07T22:07:07.146Z,56.89
2024-04-07T22:12:10.097Z,56.87
2024-04-07T22:17:12.911Z,56.56
2024-04-07T22:22:17.513Z,56.62
2024-04-07T22:27:20.955Z,56.90
2024-04-07T22:32:24.008Z,56.60
2024-04-07T22:37:26.840Z,56.72
2024-04-07T22:42:29.619Z,57.38
2024-04-07T22:47:33.177Z,57.21
2024-04-07T22:52:36.029Z,57.24
2024-04-07T22:57:39.008Z,57.84
2024-04-07T23:02:42.169Z,58.30
2024-04-07T23:07:46.427Z,58.04
2024-04-07T23:12:50.966Z,58.82
2024-04-07T23:17:54.013Z,58.73
2024-04-07T23:22:57.411Z,59.05
2024-04-07T23:28:00.390Z,59.41
2024-04-07T23:33:03.531Z,59.01
2024-04-07T23:38:08.573Z,59.30
2024-04-07T23:43:11.462Z,59.39
2024-04-07T23:48:15.431Z,59.35
2024-04-07T23:53:18.476Z,59.85
2024-04-07T23:58:21.553Z,60.12
